Time;durP1;ratioP1;P1;durP2;ratioP2;P2;SDS_P1;SDS_P2;PMS_P1;PMS_P2;Temp;Humidity;BMP_temperature;BMP_pressure;BME280_temperature;BME280_humidity;BME280_pressure;Samples;Min_cycle;Max_cycle;Signal;HPM_P1;HPM_P2
2023/02/11 00:01:35;;;;;;;15.83;2.77;;;;;;;-142.75;100.00;79157.72;4933777;29;19914;-67
2023/02/11 00:04:02;;;;;;;7.03;2.10;;;;;;;-142.75;100.00;79165.59;4933359;29;20705;-66
2023/02/11 00:06:29;;;;;;;11.33;2.03;;;;;;;-142.75;100.00;79167.56;4932559;29;20027;-68
2023/02/11 00:08:55;;;;;;;19.07;2.37;;;;;;;-142.75;100.00;79171.50;4933405;29;20031;-67
2023/02/11 00:11:24;;;;;;;15.07;2.20;;;;;;;-142.75;100.00;79169.53;4931977;29;20556;-67
2023/02/11 00:13:50;;;;;;;21.67;2.67;;;;;;;-142.75;100.00;79175.44;4932003;29;20031;-68
2023/02/11 00:16:18;;;;;;;;;;;;;;;-142.75;100.00;79159.69;4933663;29;20167;-66
2023/02/11 00:18:45;;;;;;;19.50;2.37;;;;;;;-142.75;100.00;79163.63;4930313;29;20383;-66
2023/02/11 00:21:16;;;;;;;17.23;3.07;;;;;;;-142.75;100.00;79173.47;4933826;29;20039;-66
2023/02/11 00:23:43;;;;;;;14.40;2.17;;;;;;;-142.75;100.00;79171.50;4931172;29;20114;-67
2023/02/11 00:26:17;;;;;;;23.90;3.23;;;;;;;-142.75;100.00;79159.69;4934323;29;20027;-67
2023/02/11 00:28:44;;;;;;;20.10;3.30;;;;;;;-142.75;100.00;79159.69;4932698;29;20039;-67
2023/02/11 00:31:10;;;;;;;16.43;3.00;;;;;;;-142.75;100.00;79165.59;4933656;29;20039;-67
2023/02/11 00:33:35;;;;;;;15.97;2.50;;;;;;;-142.75;100.00;79165.59;4933576;29;20027;-67
2023/02/11 00:36:05;;;;;;;;;;;;;;;-142.75;100.00;79149.81;4934392;29;20039;-67
2023/02/11 00:38:30;;;;;;;24.30;3.23;;;;;;;-142.75;100.00;79167.56;4933548;29;19923;-67
2023/02/11 00:40:55;;;;;;;;;;;;;;;-142.75;100.00;79143.91;4932958;29;20090;-66
2023/02/11 00:43:21;;;;;;;19.07;2.63;;;;;;;-142.75;100.00;79161.66;4933929;29;19918;-67
2023/02/11 00:45:46;;;;;;;;;;;;;;;-142.75;100.00;79143.91;4932981;29;20031;-66
2023/02/11 00:48:11;;;;;;;18.53;3.27;;;;;;;-142.75;100.00;79141.94;4947767;28;20339;-68
2023/02/11 00:50:36;;;;;;;;;;;;;;;-142.75;100.00;79157.72;4934337;29;20039;-65
2023/02/11 00:53:02;;;;;;;16.57;2.40;;;;;;;-142.75;100.00;79157.72;4933734;29;19914;-67
2023/02/11 00:55:27;;;;;;;;;;;;;;;-142.75;100.00;79149.81;4934182;29;20035;-66
2023/02/11 00:57:52;;;;;;;10.67;2.17;;;;;;;-142.75;100.00;79149.81;4933219;29;19919;-66
2023/02/11 01:00:17;;;;;;;;;;;;;;;-142.75;100.00;79145.88;4934109;29;20488;-66
2023/02/11 01:02:43;;;;;;;13.33;2.73;;;;;;;-142.75;100.00;79143.91;4933506;29;19969;-67
2023/02/11 01:05:08;;;;;;;;;;;;;;;-142.75;100.00;79143.91;4932791;29;20020;-65
2023/02/11 01:07:33;;;;;;;25.57;2.80;;;;;;;-142.75;100.00;79143.91;4933305;29;20045;-66
2023/02/11 01:09:58;;;;;;;;;;;;;;;-142.75;100.00;79138.00;4934001;29;20028;-66
2023/02/11 01:12:24;;;;;;;15.70;2.53;;;;;;;-142.75;100.00;79136.03;4948315;28;19970;-63
2023/02/11 01:14:49;;;;;;;;;;;;;;;-142.75;100.00;79141.94;4934192;29;20110;-67
2023/02/11 01:17:14;;;;;;;14.33;2.87;;;;;;;-142.75;100.00;79147.84;4933190;29;19915;-65
2023/02/11 01:19:40;;;;;;;;;;;;;;;-142.75;100.00;79130.13;4933836;29;20039;-67
2023/02/11 01:22:05;;;;;;;17.10;2.90;;;;;;;-142.75;100.00;79122.25;4933460;29;19915;-68
2023/02/11 01:24:30;;;;;;;;;;;;;;;-142.75;100.00;79130.13;4932630;29;20047;-67
2023/02/11 01:26:56;;;;;;;20.77;3.27;;;;;;;-142.75;100.00;79132.09;4933205;29;20005;-66
2023/02/11 01:29:21;;;;;;;;;;;;;;;-142.75;100.00;79120.28;4932303;29;20481;-66
2023/02/11 01:31:47;;;;;;;22.70;2.97;;;;;;;-142.75;100.00;79145.88;4933318;29;20376;-66
2023/02/11 01:34:12;;;;;;;17.70;3.43;;;;;;;-142.75;100.00;79132.09;4932005;29;20052;-66
2023/02/11 01:36:38;;;;;;;;;;;;;;;-142.75;100.00;79139.97;4933726;29;20395;-66
2023/02/11 01:39:03;;;;;;;17.67;2.47;;;;;;;-142.75;100.00;79122.25;4947493;28;19918;-66
2023/02/11 01:41:28;;;;;;;;;;;;;;;-142.75;100.00;79120.28;4933662;29;20028;-68
2023/02/11 01:43:53;;;;;;;19.57;2.77;;;;;;;-142.75;100.00;79130.13;4933189;29;19942;-66
2023/02/11 01:46:30;;;;;;;;;;;;;;;-142.75;100.00;79110.44;4933681;29;20110;-67
2023/02/11 01:49:17;;;;;;;14.73;3.00;;;;;;;-142.75;100.00;79102.56;4932760;29;19949;-66
2023/02/11 01:51:47;;;;;;;16.23;3.23;;;;;;;-142.75;100.00;79122.25;4933244;29;20460;-66
2023/02/11 02:00:19;;;;;;;15.17;3.00;;;;;;;-142.75;100.00;79139.97;4933394;29;20093;-65
2023/02/11 02:03:06;;;;;;;13.87;2.87;;;;;;;-142.75;100.00;79138.00;4936849;29;20023;-65
2023/02/11 02:05:47;;;;;;;19.73;3.50;;;;;;;-142.75;100.00;79161.66;4935385;29;20160;-67
2023/02/11 02:08:28;;;;;;;9.50;2.53;;;;;;;-142.75;100.00;79153.75;4936288;29;20082;-67
2023/02/11 02:10:55;;;;;;;13.07;3.13;;;;;;;-142.75;100.00;79165.59;4935338;29;20027;-67
2023/02/11 02:13:24;;;;;;;14.17;2.70;;;;;;;-142.75;100.00;79161.66;4936616;29;20509;-67
2023/02/11 02:15:53;;;;;;;11.43;3.17;;;;;;;-142.75;100.00;79153.75;4936569;29;20106;-66
2023/02/11 02:18:50;;;;;;;16.07;3.33;;;;;;;-142.75;100.00;79153.75;4936105;29;20024;-66
2023/02/11 02:21:30;;;;;;;16.57;3.30;;;;;;;-142.75;100.00;79165.59;4936535;29;20024;-65
2023/02/11 02:24:01;;;;;;;14.30;2.77;;;;;;;-142.75;100.00;79171.50;4936419;29;20062;-67
2023/02/11 02:26:54;;;;;;;14.97;3.07;;;;;;;-142.75;100.00;79189.22;4936324;29;20549;-67
2023/02/11 02:29:27;;;;;;;13.40;3.00;;;;;;;-142.75;100.00;79193.16;4936077;29;20034;-66
2023/02/11 02:32:28;;;;;;;19.73;3.87;;;;;;;-142.75;100.00;79183.31;4936254;29;20035;-66
2023/02/11 02:35:28;;;;;;;17.10;3.40;;;;;;;-142.75;100.00;79193.16;4936125;29;20023;-66
2023/02/11 02:38:00;;;;;;;19.30;3.57;;;;;;;-142.75;100.00;79185.28;4935872;29;20556;-66
2023/02/11 02:40:32;;;;;;;26.10;3.37;;;;;;;-142.75;100.00;79189.22;4934612;29;20063;-68
2023/02/11 02:42:59;;;;;;;19.83;3.13;;;;;;;-142.75;100.00;79201.03;4936037;29;20027;-66
2023/02/11 02:45:25;;;;;;;17.50;3.30;;;;;;;-142.75;100.00;79193.16;4935925;29;20107;-66
2023/02/11 02:47:50;;;;;;;;;;;;;;;-142.75;100.00;79197.09;4936055;29;20449;-66
2023/02/11 02:50:20;;;;;;;15.50;3.63;;;;;;;-142.75;100.00;79206.94;4950740;28;19914;-64
2023/02/11 02:53:15;;;;;;;14.17;3.10;;;;;;;-142.75;100.00;79206.94;4934736;29;20075;-64
2023/02/11 02:55:56;;;;;;;19.70;3.10;;;;;;;-142.75;100.00;79208.91;4935546;29;20094;-64
2023/02/11 02:58:36;;;;;;;17.53;4.23;;;;;;;-142.75;100.00;79197.09;4935488;29;20083;-65
2023/02/11 03:01:07;;;;;;;16.77;3.67;;;;;;;-142.75;100.00;79191.19;4935771;29;20039;-64
2023/02/11 03:03:52;;;;;;;17.60;3.47;;;;;;;-142.75;100.00;79185.28;4935731;29;20020;-66
2023/02/11 03:06:28;;;;;;;16.90;3.77;;;;;;;-142.75;100.00;79197.09;4935617;29;20074;-66
2023/02/11 03:09:19;;;;;;;19.43;4.20;;;;;;;-142.75;100.00;79193.16;4935322;29;20481;-66
2023/02/11 03:11:44;;;;;;;18.87;4.03;;;;;;;-142.75;100.00;79195.13;4934141;29;20512;-66
2023/02/11 03:14:12;;;;;;;;;;;;;;;-142.75;100.00;79199.06;4934649;29;20130;-69
2023/02/11 03:16:38;;;;;;;25.05;4.72;;;;;;;-142.75;100.00;79204.97;4935570;29;19914;-66
2023/02/11 03:19:27;;;;;;;15.30;4.23;;;;;;;-142.75;100.00;79204.97;4935016;29;20038;-66
2023/02/11 03:21:54;;;;;;;18.30;4.00;;;;;;;-142.75;100.00;79216.78;4935383;29;20116;-66
2023/02/11 03:24:26;;;;;;;22.00;3.93;;;;;;;-142.75;100.00;79210.88;4935344;29;20067;-66
2023/02/11 03:26:55;;;;;;;23.73;4.60;;;;;;;-142.75;100.00;79204.97;4934368;29;20034;-66
2023/02/11 03:29:32;;;;;;;14.27;3.93;;;;;;;-142.75;100.00;79216.78;4935044;29;20027;-65
2023/02/11 03:32:30;;;;;;;26.57;5.13;;;;;;;-142.75;100.00;79216.78;4933945;29;20131;-66
2023/02/11 03:35:20;;;;;;;21.60;5.50;;;;;;;-142.75;100.00;79220.75;4930654;29;20470;-66
2023/02/11 03:37:55;;;;;;;18.67;4.33;;;;;;;-142.75;100.00;79210.88;4933580;29;20114;-65
2023/02/11 03:40:24;;;;;;;17.87;5.03;;;;;;;-142.75;100.00;79206.94;4934985;29;20027;-66
2023/02/11 03:43:00;;;;;;;18.83;4.80;;;;;;;-142.75;100.00;79197.09;4934989;29;20363;-66
2023/02/11 03:45:27;;;;;;;19.00;4.87;;;;;;;-142.75;100.00;79197.09;4934869;29;20036;-68
2023/02/11 03:48:01;;;;;;;14.17;4.13;;;;;;;-142.75;100.00;79193.16;4934620;29;20486;-66
2023/02/11 03:50:28;;;;;;;16.27;4.60;;;;;;;-142.75;100.00;79183.31;4933675;29;20409;-66
2023/02/11 03:52:55;;;;;;;14.43;3.97;;;;;;;-142.75;100.00;79189.22;4934862;29;20036;-67
2023/02/11 03:55:22;;;;;;;18.60;4.53;;;;;;;-142.75;100.00;79179.38;4934672;29;20485;-66
2023/02/11 03:57:47;;;;;;;17.30;3.83;;;;;;;-142.75;100.00;79199.06;4934251;29;20114;-66
2023/02/11 04:00:13;;;;;;;;;;;;;;;-142.75;100.00;79187.25;4935082;29;20557;-66
2023/02/11 04:02:39;;;;;;;16.67;4.30;;;;;;;-142.75;100.00;79183.31;4949458;28;19946;-66
2023/02/11 04:05:06;;;;;;;11.70;4.00;;;;;;;-142.75;100.00;79187.25;4934579;29;20039;-66
2023/02/11 04:07:32;;;;;;;17.73;4.53;;;;;;;-142.75;100.00;79201.03;4934214;29;20038;-66
2023/02/11 04:09:58;;;;;;;;;;;;;;;-142.75;100.00;79197.09;4935043;29;20039;-66
2023/02/11 04:12:23;;;;;;;29.67;4.70;;;;;;;-142.75;100.00;79199.06;4934438;29;19937;-67
2023/02/11 04:14:48;;;;;;;;;;;;;;;-142.75;100.00;79191.19;4933596;29;20119;-65
2023/02/11 04:17:14;;;;;;;17.80;4.40;;;;;;;-142.75;100.00;79204.97;4934115;29;19915;-64
2023/02/11 04:19:39;;;;;;;;;;;;;;;-142.75;100.00;79197.09;4934636;29;20378;-66
2023/02/11 04:22:04;;;;;;;14.73;4.73;;;;;;;-142.75;100.00;79199.06;4934120;29;19962;-66
2023/02/11 04:24:30;;;;;;;;;;;;;;;-142.75;100.00;79189.22;4934135;29;20043;-68
2023/02/11 04:26:55;;;;;;;15.83;4.50;;;;;;;-142.75;100.00;79195.13;4934098;29;19914;-69
2023/02/11 04:29:20;;;;;;;;;;;;;;;-142.75;100.00;79189.22;4934385;29;20055;-66
2023/02/11 04:31:46;;;;;;;20.43;4.97;;;;;;;-142.75;100.00;79191.19;4948837;28;19915;-64
2023/02/11 04:34:11;;;;;;;15.83;4.93;;;;;;;-142.75;100.00;79191.19;4932903;29;20039;-66
2023/02/11 04:36:37;;;;;;;;;;;;;;;-142.75;100.00;79197.09;4934377;29;20110;-66
2023/02/11 04:39:02;;;;;;;17.40;5.43;;;;;;;-142.75;100.00;79201.03;4933502;29;20328;-66
2023/02/11 04:41:28;;;;;;;;;;;;;;;-142.75;100.00;79193.16;4934424;29;20527;-66
2023/02/11 04:43:53;;;;;;;17.50;5.57;;;;;;;-142.75;100.00;79197.09;4932604;29;19914;-66
2023/02/11 04:46:18;;;;;;;;;;;;;;;-142.75;100.00;79173.47;4934376;29;20055;-66
2023/02/11 04:48:44;;;;;;;25.83;6.00;;;;;;;-142.75;100.00;79185.28;4933441;29;19922;-66
2023/02/11 04:51:09;;;;;;;;;;;;;;;-142.75;100.00;79193.16;4934320;29;20039;-68
2023/02/11 04:53:34;;;;;;;20.33;5.40;;;;;;;-142.75;100.00;79193.16;4948462;29;19921;-66
2023/02/11 04:55:59;;;;;;;;;;;;;;;-142.75;100.00;79185.28;4932942;29;20032;-68
2023/02/11 04:58:25;;;;;;;21.67;5.57;;;;;;;-142.75;100.00;79175.44;4933336;29;20391;-66
2023/02/11 05:00:50;;;;;;;;;;;;;;;-142.75;100.00;79171.50;4934158;29;20059;-67
2023/02/11 05:03:15;;;;;;;20.20;5.43;;;;;;;-142.75;100.00;79177.41;4933710;29;19915;-66
2023/02/11 05:05:41;;;;;;;;;;;;;;;-142.75;100.00;79161.66;4934006;29;20445;-66
2023/02/11 05:08:08;;;;;;;18.07;5.93;;;;;;;-142.75;100.00;79159.69;4933239;29;19969;-66
2023/02/11 05:10:34;;;;;;;27.07;6.93;;;;;;;-142.75;100.00;79165.59;4933489;29;20028;-66
2023/02/11 05:12:59;;;;;;;;;;;;;;;-142.75;100.00;79159.69;4933863;29;20039;-66
2023/02/11 05:15:25;;;;;;;18.93;5.93;;;;;;;-142.75;100.00;79175.44;4933553;29;20009;-68
2023/02/11 05:17:50;;;;;;;;;;;;;;;-142.75;100.00;79183.31;4932293;29;20071;-67
2023/02/11 05:20:16;;;;;;;19.27;6.10;;;;;;;-142.75;100.00;79177.41;4948208;28;19918;-66
2023/02/11 05:22:41;;;;;;;;;;;;;;;-142.75;100.00;79175.44;4933841;29;20031;-68
2023/02/11 05:25:06;;;;;;;15.07;5.97;;;;;;;-142.75;100.00;79193.16;4933331;29;19962;-67
2023/02/11 05:27:32;;;;;;;;;;;;;;;-142.75;100.00;79173.47;4933499;29;20055;-67
2023/02/11 05:29:57;;;;;;;17.27;6.97;;;;;;;-142.75;100.00;79187.25;4933470;29;20368;-66
2023/02/11 05:32:22;;;;;;;;;;;;;;;-142.75;100.00;79183.31;4933800;29;20020;-66
2023/02/11 05:34:47;;;;;;;26.87;7.83;;;;;;;-142.75;100.00;79187.25;4935336;29;20372;-66
2023/02/11 05:37:13;;;;;;;;;;;;;;;-142.75;100.00;79189.22;4937530;29;20046;-66
2023/02/11 05:39:38;;;;;;;19.90;7.03;;;;;;;-142.75;100.00;79189.22;4937023;29;19957;-67
2023/02/11 05:42:03;;;;;;;;;;;;;;;-142.75;100.00;79191.19;4937634;29;20168;-66
2023/02/11 05:44:29;;;;;;;20.87;6.57;;;;;;;-142.75;100.00;79203.00;4937256;29;19985;-66
2023/02/11 05:46:54;;;;;;;;;;;;;;;-142.75;100.00;79181.34;4937502;29;20070;-66
2023/02/11 05:49:19;;;;;;;22.13;7.43;;;;;;;-142.75;100.00;79181.34;4936722;29;19993;-66
2023/02/11 05:51:45;;;;;;;;;;;;;;;-142.75;100.00;79171.50;4937936;29;20059;-67
2023/02/11 05:54:10;;;;;;;24.77;7.63;;;;;;;-142.75;100.00;79177.41;4936986;29;19915;-67
2023/02/11 05:56:35;;;;;;;;;;;;;;;-142.75;100.00;79175.44;4936037;29;20508;-66
2023/02/11 05:59:00;;;;;;;27.37;7.80;;;;;;;-142.75;100.00;79187.25;4936476;29;19926;-67
2023/02/11 06:01:26;;;;;;;;;;;;;;;-142.75;100.00;79175.44;4937419;29;20024;-67
2023/02/11 06:03:51;;;;;;;22.03;7.97;;;;;;;-142.75;100.00;79189.22;4936830;29;19966;-65
2023/02/11 06:06:16;;;;;;;;;;;;;;;-142.75;100.00;79181.34;4937079;29;20030;-66
2023/02/11 06:08:42;;;;;;;20.07;8.63;;;;;;;-142.75;100.00;79185.28;4936362;29;19922;-68
2023/02/11 06:11:07;;;;;;;;;;;;;;;-142.75;100.00;79189.22;4936975;29;20110;-66
2023/02/11 06:13:33;;;;;;;24.27;7.43;;;;;;;-142.75;100.00;79183.31;4936588;29;20403;-67
2023/02/11 06:15:59;;;;;;;;;;;;;;;-142.75;100.00;79187.25;4937015;29;20035;-68
2023/02/11 06:18:24;;;;;;;17.23;7.83;;;;;;;-142.75;100.00;79183.31;4936194;29;20041;-65
2023/02/11 06:20:49;;;;;;;21.83;8.40;;;;;;;-142.75;100.00;79181.34;4936490;29;20074;-66
2023/02/11 06:23:15;;;;;;;;;;;;;;;-142.75;100.00;79185.28;4936891;29;20035;-66
2023/02/11 06:25:40;;;;;;;22.10;7.90;;;;;;;-142.75;100.00;79177.41;4936417;29;19915;-66
2023/02/11 06:28:05;;;;;;;;;;;;;;;-142.75;100.00;79167.56;4936458;29;20031;-67
2023/02/11 06:30:30;;;;;;;26.37;9.63;;;;;;;-142.75;100.00;79157.72;4936423;29;19925;-66
2023/02/11 06:32:56;;;;;;;26.10;10.00;;;;;;;-142.75;100.00;79155.72;4935068;29;20058;-66
2023/02/11 06:35:21;;;;;;;;;;;;;;;-142.75;100.00;79149.81;4936787;29;20066;-68
2023/02/11 06:37:48;;;;;;;25.17;9.70;;;;;;;-142.75;100.00;79149.81;4935805;29;19923;-66
2023/02/11 06:40:14;;;;;;;27.10;9.60;;;;;;;-142.75;100.00;79155.72;4936026;29;20453;-67
2023/02/11 06:42:39;;;;;;;;;;;;;;;-142.75;100.00;79141.94;4936679;29;20115;-67
2023/02/11 06:45:07;;;;;;;25.40;9.53;;;;;;;-142.75;100.00;79157.72;4936147;29;20009;-66
2023/02/11 06:47:33;;;;;;;23.33;10.03;;;;;;;-142.75;100.00;79159.69;4934984;29;20087;-67
2023/02/11 06:49:58;;;;;;;;;;;;;;;-142.75;100.00;79143.91;4936475;29;20404;-66
2023/02/11 06:52:23;;;;;;;22.83;8.73;;;;;;;-142.75;100.00;79151.78;4936022;29;19962;-67
2023/02/11 06:54:48;;;;;;;;;;;;;;;-142.75;100.00;79139.97;4936297;29;20032;-67
2023/02/11 06:57:14;;;;;;;24.47;9.77;;;;;;;-142.75;100.00;79147.84;4935620;29;19961;-66
2023/02/11 06:59:39;;;;;;;;;;;;;;;-142.75;100.00;79149.81;4936240;29;20110;-67
2023/02/11 07:02:05;;;;;;;23.63;11.23;;;;;;;-142.75;100.00;79149.81;4935716;29;20013;-67
2023/02/11 07:04:30;;;;;;;;;;;;;;;-142.75;100.00;79145.88;4934933;29;21363;-67
2023/02/11 07:06:55;;;;;;;25.70;9.90;;;;;;;-142.75;100.00;79161.66;4933397;29;19914;-66
2023/02/11 07:09:20;;;;;;;;;;;;;;;-142.75;100.00;79165.59;4935322;29;20038;-65
2023/02/11 07:11:46;;;;;;;30.13;10.40;;;;;;;-142.75;100.00;79155.72;4933313;29;19915;-66
2023/02/11 07:14:12;;;;;;;;;;;;;;;-142.75;100.00;79163.63;4933537;29;20113;-66
2023/02/11 07:16:37;;;;;;;25.70;10.87;;;;;;;-142.75;100.00;79175.44;4933451;29;19915;-68
2023/02/11 07:19:03;;;;;;;;;;;;;;;-142.75;100.00;79165.59;4933062;29;20038;-65
2023/02/11 07:21:28;;;;;;;30.63;11.47;;;;;;;-142.75;100.00;79173.47;4933010;29;19915;-66
2023/02/11 07:23:53;;;;;;;;;;;;;;;-142.75;100.00;79183.31;4935323;29;20404;-66
2023/02/11 07:26:22;;;;;;;23.17;9.63;;;;;;;-142.75;100.00;79173.47;4936156;29;19922;-67
2023/02/11 07:28:47;;;;;;;23.77;10.27;;;;;;;-142.75;100.00;79173.47;4932737;29;20028;-66
2023/02/11 07:31:14;;;;;;;;;;;;;;;-142.75;100.00;79167.56;4935055;29;20031;-65
2023/02/11 07:33:40;;;;;;;31.13;11.55;;;;;;;-142.75;100.00;79173.47;4933709;28;19919;-66
2023/02/11 07:36:07;;;;;;;25.00;11.70;;;;;;;-142.75;100.00;79181.34;4933412;29;20075;-66
2023/02/11 07:38:34;;;;;;;31.87;13.00;;;;;;;-142.75;100.00;79185.28;4933864;29;20687;-66
2023/02/11 07:41:01;;;;;;;30.57;11.30;;;;;;;-142.75;100.00;79171.50;4933907;29;20031;-67
2023/02/11 07:43:26;;;;;;;26.73;12.70;;;;;;;-142.75;100.00;79165.59;4934953;29;20058;-68
2023/02/11 07:45:52;;;;;;;;;;;;;;;-142.75;100.00;79171.50;4935494;29;20028;-65
2023/02/11 07:48:17;;;;;;;32.53;11.97;;;;;;;-142.75;100.00;79177.41;4934558;29;20450;-65
2023/02/11 07:50:42;;;;;;;;;;;;;;;-142.75;100.00;79161.66;4936592;29;20685;-67
2023/02/11 07:53:07;;;;;;;24.27;11.23;;;;;;;-142.75;100.00;79169.53;4933552;29;20002;-66
2023/02/11 07:55:33;;;;;;;;;;;;;;;-142.75;100.00;79169.53;4935172;29;20038;-67
2023/02/11 07:57:58;;;;;;;29.73;11.07;;;;;;;-142.75;100.00;79169.53;4933311;29;19926;-67
2023/02/11 08:00:23;;;;;;;;;;;;;;;-142.75;100.00;79145.88;4935204;29;20461;-67
2023/02/11 08:02:48;;;;;;;37.13;13.67;;;;;;;-142.75;100.00;79151.78;4934620;29;19922;-67
2023/02/11 08:05:14;;;;;;;;;;;;;;;-142.75;100.00;79155.72;4933827;29;20035;-67
2023/02/11 08:07:39;;;;;;;31.83;12.73;;;;;;;-142.75;100.00;79141.94;4935089;29;20492;-66
2023/02/11 08:10:04;;;;;;;;;;;;;;;-142.75;100.00;79118.31;4934638;29;20023;-68
2023/02/11 08:12:30;;;;;;;31.90;13.37;;;;;;;-142.75;100.00;79120.28;4948809;28;19911;-67
2023/02/11 08:14:55;;;;;;;;;;;;;;;-142.75;100.00;79106.50;4934579;29;20465;-66
2023/02/11 08:17:20;;;;;;;33.40;13.60;;;;;;;-142.75;100.00;79120.28;4932667;29;19933;-66
2023/02/11 08:19:46;;;;;;;30.97;14.00;;;;;;;-142.75;100.00;79102.56;4934044;29;20098;-66
2023/02/11 08:22:11;;;;;;;;;;;;;;;-142.75;100.00;79090.72;4934409;29;20039;-66
2023/02/11 08:24:36;;;;;;;30.67;13.03;;;;;;;-142.75;100.00;79088.75;4933944;29;20596;-67
2023/02/11 08:27:02;;;;;;;;;;;;;;;-142.75;100.00;79086.78;4934189;29;20532;-66
2023/02/11 08:29:27;;;;;;;26.43;12.47;;;;;;;-142.75;100.00;79086.78;4933776;29;19911;-66
2023/02/11 08:31:52;;;;;;;;;;;;;;;-142.75;100.00;79086.78;4934396;29;20473;-66
2023/02/11 08:34:18;;;;;;;33.50;13.93;;;;;;;-142.75;100.00;79080.88;4948605;28;19923;-66
2023/02/11 08:36:44;;;;;;;32.80;13.27;;;;;;;-142.75;100.00;79084.81;4934757;29;20031;-66
2023/02/11 08:39:17;;;;;;;32.23;14.23;;;;;;;-142.75;100.00;79078.91;4933089;29;20047;-67
2023/02/11 08:41:43;;;;;;;30.50;14.53;;;;;;;-142.75;100.00;79076.94;4933735;29;20531;-67
2023/02/11 08:44:08;;;;;;;37.03;14.07;;;;;;;-142.75;100.00;79074.97;4932283;29;20052;-69
2023/02/11 08:46:34;;;;;;;;;;;;;;;-142.75;100.00;79067.09;4934011;29;20020;-67
2023/02/11 08:48:59;;;;;;;30.20;12.83;;;;;;;-142.75;100.00;79078.91;4947981;28;19911;-66
2023/02/11 08:51:26;;;;;;;;;;;;;;;-142.75;100.00;79065.13;4934096;29;20051;-65
2023/02/11 08:53:53;;;;;;;30.70;14.35;;;;;;;-142.75;100.00;79071.03;4934005;29;19965;-67
2023/02/11 08:56:20;;;;;;;34.73;14.20;;;;;;;-142.75;100.00;79053.31;4933244;29;20035;-65
2023/02/11 08:58:46;;;;;;;29.43;14.03;;;;;;;-142.75;100.00;79053.31;4932413;29;20436;-68
2023/02/11 09:01:17;;;;;;;32.83;14.73;;;;;;;-142.75;100.00;79057.25;4934901;29;20162;-68
2023/02/11 09:03:43;;;;;;;24.73;12.83;;;;;;;-142.75;100.00;79049.38;4933068;29;20103;-65
2023/02/11 09:06:09;;;;;;;;;;;;;;;-142.75;100.00;79045.44;4932876;29;20432;-67
2023/02/11 09:08:36;;;;;;;31.98;14.35;;;;;;;-142.75;100.00;79071.03;4933051;29;19918;-67
2023/02/11 09:11:02;;;;;;;29.60;13.90;;;;;;;-142.75;100.00;79071.03;4933677;29;20036;-67
2023/02/11 09:13:28;;;;;;;31.23;14.87;;;;;;;-142.75;100.00;79078.91;4933373;29;20024;-67
2023/02/11 09:15:53;;;;;;;;;;;;;;;-142.75;100.00;79063.16;4934001;29;20026;-67
2023/02/11 09:18:18;;;;;;;30.48;12.63;;;;;;;-142.75;100.00;79067.09;4933112;29;19919;-69
2023/02/11 09:20:43;;;;;;;;;;;;;;;-142.75;100.00;79049.38;4933949;29;20111;-67
2023/02/11 09:23:09;;;;;;;34.30;12.47;;;;;;;-142.75;100.00;79049.38;4933418;29;19917;-68
2023/02/11 09:25:34;;;;;;;;;;;;;;;-142.75;100.00;79051.34;4932653;29;20025;-67
2023/02/11 09:27:59;;;;;;;42.40;14.10;;;;;;;-142.75;100.00;79047.41;4933082;29;19917;-67
2023/02/11 09:30:26;;;;;;;33.40;14.97;;;;;;;-142.75;100.00;79037.56;4933500;29;20067;-67
2023/02/11 09:32:51;;;;;;;;;;;;;;;-142.75;100.00;79027.69;4933910;29;20545;-68
2023/02/11 09:35:16;;;;;;;26.77;13.43;;;;;;;-142.75;100.00;79019.81;4933151;29;20372;-66
2023/02/11 09:37:42;;;;;;;;;;;;;;;-142.75;100.00;79009.97;4933346;29;20098;-68
2023/02/11 09:40:08;;;;;;;29.07;13.57;;;;;;;-142.75;100.00;79006.03;4933840;29;19917;-65
2023/02/11 09:42:39;;;;;;;;;;;;;;;-142.75;100.00;78984.38;4933862;29;20028;-67
2023/02/11 09:45:12;;;;;;;25.87;12.97;;;;;;;-142.75;100.00;78972.56;4933304;29;19942;-69
2023/02/11 09:48:24;;;;;;;29.33;13.33;;;;;;;-142.75;100.00;78970.59;4932243;29;20110;-67
2023/02/11 09:50:54;;;;;;;32.90;13.80;;;;;;;-142.75;100.00;78970.59;4931205;29;20122;-67
2023/02/11 09:53:28;;;;;;;33.57;13.80;;;;;;;-142.75;100.00;78964.69;4932575;29;20083;-67
2023/02/11 09:55:57;;;;;;;36.97;14.87;;;;;;;-142.75;100.00;78956.78;4933230;29;20553;-67
2023/02/11 09:58:26;;;;;;;35.37;13.97;;;;;;;-142.75;100.00;78948.91;4932773;29;20024;-67
2023/02/11 10:01:26;;;;;;;34.07;14.77;;;;;;;-142.75;100.00;78941.03;4933089;29;20036;-67
2023/02/11 10:04:12;;;;;;;28.40;14.00;;;;;;;-142.75;100.00;78937.09;4933133;29;20024;-67
2023/02/11 10:06:45;;;;;;;27.15;13.68;;;;;;;-142.75;100.00;78935.13;4932362;29;20047;-67
2023/02/11 10:09:20;;;;;;;27.00;13.00;;;;;;;-142.75;100.00;78923.31;4932756;29;20152;-66
2023/02/11 10:12:03;;;;;;;26.98;13.32;;;;;;;-142.75;100.00;78931.19;4933205;29;20066;-65
2023/02/11 10:14:37;;;;;;;25.13;12.68;;;;;;;-142.75;100.00;78917.41;4933048;29;20031;-66
2023/02/11 10:17:09;;;;;;;31.42;13.30;;;;;;;-142.75;100.00;78905.59;4931498;29;20365;-67
2023/02/11 10:19:58;;;;;;;29.60;13.27;;;;;;;-142.75;100.00;78919.38;4932833;29;20036;-67
2023/02/11 10:22:34;;;;;;;26.23;12.80;;;;;;;-142.75;100.00;78923.31;4935646;29;20091;-66
2023/02/11 10:25:21;;;;;;;26.23;12.00;;;;;;;-142.75;100.00;78925.28;4936584;29;20059;-67
2023/02/11 10:27:46;;;;;;;25.40;12.20;;;;;;;-142.75;100.00;78927.25;4934964;29;20019;-66
2023/02/11 10:30:25;;;;;;;30.35;12.90;;;;;;;-142.75;100.00;78941.03;4936379;29;20083;-67
2023/02/11 10:33:04;;;;;;;29.15;11.73;;;;;;;-142.75;100.00;78933.16;4936370;29;20016;-67
2023/02/11 10:35:31;;;;;;;26.35;13.23;;;;;;;-142.75;100.00;78925.28;4936358;29;20024;-67
2023/02/11 10:37:56;;;;;;;26.98;12.43;;;;;;;-142.75;100.00;78913.47;4933404;29;20038;-66
2023/02/11 10:40:23;;;;;;;;;;;;;;;-142.75;100.00;78911.50;4936637;29;20035;-67
2023/02/11 10:42:51;;;;;;;25.67;12.52;;;;;;;-142.75;100.00;78903.63;4935059;29;19974;-66
2023/02/11 10:45:23;;;;;;;26.70;12.15;;;;;;;-142.75;100.00;78897.72;4934791;29;20048;-66
2023/02/11 10:47:49;;;;;;;26.15;12.45;;;;;;;-142.75;100.00;78891.78;4935825;29;20051;-67
2023/02/11 10:50:33;;;;;;;;;;;;;;;-142.75;100.00;78889.81;4936552;29;20531;-67
2023/02/11 10:53:23;;;;;;;23.10;11.70;;;;;;;-142.75;100.00;78879.97;4936034;29;19917;-67
2023/02/11 10:55:56;;;;;;;23.83;12.07;;;;;;;-142.75;100.00;78887.84;4935358;29;20071;-68
2023/02/11 10:58:30;;;;;;;22.10;12.40;;;;;;;-142.75;100.00;78889.81;4935481;29;20055;-67
2023/02/11 11:00:58;;;;;;;29.33;11.32;;;;;;;-142.75;100.00;78889.81;4936017;29;20039;-67
2023/02/11 11:03:26;;;;;;;25.52;11.93;;;;;;;-142.75;100.00;78887.84;4935818;29;20019;-66
2023/02/11 11:05:56;;;;;;;27.42;11.35;;;;;;;-142.75;100.00;78878.00;4935652;29;20627;-67
2023/02/11 11:08:21;;;;;;;25.30;12.13;;;;;;;-142.75;100.00;78876.03;4934474;29;20078;-67
2023/02/11 11:10:48;;;;;;;;;;;;;;;-142.75;100.00;78860.28;4934713;29;20023;-65
2023/02/11 11:13:22;;;;;;;27.60;11.57;;;;;;;-142.75;100.00;78846.50;4935593;29;20475;-67
2023/02/11 11:16:11;;;;;;;26.75;11.50;;;;;;;-142.75;100.00;78838.63;4935686;29;20039;-67
2023/02/11 11:18:37;;;;;;;24.92;11.82;;;;;;;-142.75;100.00;78836.66;4935259;29;20027;-67
2023/02/11 11:21:07;;;;;;;;;;;;;;;-142.75;100.00;78842.56;4935942;29;20038;-66
2023/02/11 11:23:35;;;;;;;17.48;8.57;;;;;;;-142.75;100.00;78868.16;4935322;29;19918;-67
2023/02/11 11:26:21;;;;;;;17.83;9.77;;;;;;;-142.75;100.00;78864.22;4935502;29;20055;-67
2023/02/11 11:28:52;;;;;;;15.45;8.27;;;;;;;-142.75;100.00;78840.59;4934872;29;20160;-67
2023/02/11 11:31:24;;;;;;;21.65;10.13;;;;;;;-142.75;100.00;78848.47;4935215;29;20058;-67
2023/02/11 11:33:52;;;;;;;14.00;7.32;;;;;;;-142.75;100.00;78852.41;4933886;29;20027;-68